sensor_id;sensor_type;location;lat;lon;timestamp;pressure;altitude;pressure_sealevel;temperature;humidity
49999;BME280;68071;45.062;7.356;2024-01-30T00:00:05;96838.78;;;0.72;100.00
49999;BME280;68071;45.062;7.356;2024-01-30T00:03:09;96842.00;;;0.60;100.00
49999;BME280;68071;45.062;7.356;2024-01-30T00:06:14;96850.16;;;0.13;100.00
49999;BME280;68071;45.062;7.356;2024-01-30T00:09:18;96845.34;;;0.71;100.00
49999;BME280;68071;45.062;7.356;2024-01-30T00:12:22;96845.94;;;0.82;100.00
49999;BME280;68071;45.062;7.356;2024-01-30T00:15:26;96850.88;;;0.80;100.00
49999;BME280;68071;45.062;7.356;2024-01-30T00:18:30;96852.47;;;1.09;100.00
49999;BME280;68071;45.062;7.356;2024-01-30T00:21:34;96854.59;;;0.98;100.00
49999;BME280;68071;45.062;7.356;2024-01-30T00:24:38;96849.72;;;1.37;100.00
49999;BME280;68071;45.062;7.356;2024-01-30T00:27:41;96849.75;;;1.60;100.00
49999;BME280;68071;45.062;7.356;2024-01-30T00:30:45;96854.06;;;1.61;100.00
49999;BME280;68071;45.062;7.356;2024-01-30T00:33:49;96849.28;;;2.26;100.00
49999;BME280;68071;45.062;7.356;2024-01-30T00:36:53;96854.88;;;1.98;100.00
49999;BME280;68071;45.062;7.356;2024-01-30T00:39:57;96837.25;;;1.81;100.00
49999;BME280;68071;45.062;7.356;2024-01-30T00:43:01;96851.75;;;1.68;100.00
49999;BME280;68071;45.062;7.356;2024-01-30T00:46:05;96847.84;;;1.60;100.00
49999;BME280;68071;45.062;7.356;2024-01-30T00:49:10;96842.97;;;1.94;100.00
49999;BME280;68071;45.062;7.356;2024-01-30T00:52:14;96853.56;;;2.18;100.00
49999;BME280;68071;45.062;7.356;2024-01-30T00:55:18;96845.06;;;2.20;100.00
49999;BME280;68071;45.062;7.356;2024-01-30T00:58:22;96855.22;;;1.83;100.00
49999;BME280;68071;45.062;7.356;2024-01-30T01:01:26;96847.91;;;1.69;100.00
49999;BME280;68071;45.062;7.356;2024-01-30T01:04:30;96845.44;;;1.59;100.00
49999;BME280;68071;45.062;7.356;2024-01-30T01:07:34;96846.91;;;0.86;100.00
49999;BME280;68071;45.062;7.356;2024-01-30T01:10:38;96846.91;;;0.86;100.00
49999;BME280;68071;45.062;7.356;2024-01-30T01:13:43;96847.44;;;1.02;100.00
49999;BME280;68071;45.062;7.356;2024-01-30T01:16:46;96845.03;;;1.01;100.00
49999;BME280;68071;45.062;7.356;2024-01-30T01:19:50;96851.25;;;1.15;100.00
49999;BME280;68071;45.062;7.356;2024-01-30T01:22:54;96850.41;;;1.29;100.00
49999;BME280;68071;45.062;7.356;2024-01-30T01:25:58;96852.88;;;1.16;100.00
49999;BME280;68071;45.062;7.356;2024-01-30T01:29:03;96851.78;;;1.54;100.00
49999;BME280;68071;45.062;7.356;2024-01-30T01:32:14;96855.59;;;0.88;100.00
49999;BME280;68071;45.062;7.356;2024-01-30T01:35:18;96853.88;;;1.07;100.00
49999;BME280;68071;45.062;7.356;2024-01-30T01:38:22;96849.16;;;0.84;100.00
49999;BME280;68071;45.062;7.356;2024-01-30T01:41:30;96848.63;;;0.96;100.00
49999;BME280;68071;45.062;7.356;2024-01-30T01:44:35;96853.28;;;0.96;100.00
49999;BME280;68071;45.062;7.356;2024-01-30T01:47:39;96848.94;;;0.81;100.00
49999;BME280;68071;45.062;7.356;2024-01-30T01:50:43;96848.22;;;0.61;100.00
49999;BME280;68071;45.062;7.356;2024-01-30T01:53:48;96844.88;;;1.20;100.00
49999;BME280;68071;45.062;7.356;2024-01-30T01:56:52;96849.97;;;0.99;100.00
49999;BME280;68071;45.062;7.356;2024-01-30T01:59:56;96846.53;;;0.93;100.00
49999;BME280;68071;45.062;7.356;2024-01-30T02:03:00;96838.75;;;1.00;100.00
49999;BME280;68071;45.062;7.356;2024-01-30T02:06:04;96839.44;;;1.34;100.00
49999;BME280;68071;45.062;7.356;2024-01-30T02:09:08;96841.91;;;1.44;100.00
49999;BME280;68071;45.062;7.356;2024-01-30T02:12:13;96830.78;;;1.18;100.00
49999;BME280;68071;45.062;7.356;2024-01-30T02:15:16;96842.00;;;0.88;100.00
49999;BME280;68071;45.062;7.356;2024-01-30T02:18:21;96839.66;;;1.10;100.00
49999;BME280;68071;45.062;7.356;2024-01-30T02:21:47;96831.69;;;0.85;100.00
49999;BME280;68071;45.062;7.356;2024-01-30T02:24:51;96834.03;;;0.78;100.00
49999;BME280;68071;45.062;7.356;2024-01-30T02:27:56;96833.31;;;0.86;100.00
49999;BME280;68071;45.062;7.356;2024-01-30T02:31:00;96831.50;;;0.82;100.00
49999;BME280;68071;45.062;7.356;2024-01-30T02:34:03;96829.06;;;1.22;100.00
49999;BME280;68071;45.062;7.356;2024-01-30T02:37:08;96825.66;;;0.88;100.00
49999;BME280;68071;45.062;7.356;2024-01-30T02:40:12;96823.03;;;0.41;100.00
49999;BME280;68071;45.062;7.356;2024-01-30T02:43:16;96816.50;;;0.56;100.00
49999;BME280;68071;45.062;7.356;2024-01-30T02:46:20;96815.56;;;0.33;100.00
49999;BME280;68071;45.062;7.356;2024-01-30T02:49:24;96815.84;;;0.18;100.00
49999;BME280;68071;45.062;7.356;2024-01-30T02:52:28;96811.00;;;0.28;100.00
49999;BME280;68071;45.062;7.356;2024-01-30T02:55:33;96808.50;;;0.32;100.00
49999;BME280;68071;45.062;7.356;2024-01-30T02:58:37;96815.75;;;1.20;100.00
49999;BME280;68071;45.062;7.356;2024-01-30T03:01:44;96814.34;;;0.95;100.00
49999;BME280;68071;45.062;7.356;2024-01-30T03:04:48;96815.09;;;0.73;100.00
49999;BME280;68071;45.062;7.356;2024-01-30T03:07:52;96816.59;;;0.65;100.00
49999;BME280;68071;45.062;7.356;2024-01-30T03:10:56;96816.50;;;0.70;100.00
49999;BME280;68071;45.062;7.356;2024-01-30T03:14:00;96816.19;;;0.72;100.00
49999;BME280;68071;45.062;7.356;2024-01-30T03:17:04;96818.16;;;1.81;100.00
49999;BME280;68071;45.062;7.356;2024-01-30T03:20:08;96817.19;;;1.77;100.00
49999;BME280;68071;45.062;7.356;2024-01-30T03:23:12;96812.63;;;1.13;100.00
49999;BME280;68071;45.062;7.356;2024-01-30T03:26:16;96818.00;;;1.04;100.00
49999;BME280;68071;45.062;7.356;2024-01-30T03:29:20;96814.06;;;0.83;100.00
49999;BME280;68071;45.062;7.356;2024-01-30T03:32:24;96822.13;;;0.88;100.00
49999;BME280;68071;45.062;7.356;2024-01-30T03:35:28;96819.16;;;1.26;100.00
49999;BME280;68071;45.062;7.356;2024-01-30T03:38:32;96817.72;;;1.43;100.00
49999;BME280;68071;45.062;7.356;2024-01-30T03:41:42;96813.81;;;2.03;100.00
49999;BME280;68071;45.062;7.356;2024-01-30T03:44:46;96816.88;;;1.05;100.00
49999;BME280;68071;45.062;7.356;2024-01-30T03:47:50;96805.69;;;0.51;100.00
49999;BME280;68071;45.062;7.356;2024-01-30T03:50:53;96807.72;;;0.59;100.00
49999;BME280;68071;45.062;7.356;2024-01-30T03:53:57;96802.47;;;0.63;100.00
49999;BME280;68071;45.062;7.356;2024-01-30T03:57:01;96806.81;;;0.78;100.00
49999;BME280;68071;45.062;7.356;2024-01-30T04:00:06;96803.25;;;1.05;100.00
49999;BME280;68071;45.062;7.356;2024-01-30T04:03:16;96815.06;;;1.51;100.00
49999;BME280;68071;45.062;7.356;2024-01-30T04:06:20;96806.81;;;1.43;100.00
49999;BME280;68071;45.062;7.356;2024-01-30T04:09:24;96810.47;;;1.38;100.00
49999;BME280;68071;45.062;7.356;2024-01-30T04:12:29;96808.09;;;1.09;100.00
49999;BME280;68071;45.062;7.356;2024-01-30T04:15:33;96810.50;;;1.24;100.00
49999;BME280;68071;45.062;7.356;2024-01-30T04:18:38;96801.38;;;0.92;100.00
49999;BME280;68071;45.062;7.356;2024-01-30T04:21:42;96815.38;;;0.99;100.00
49999;BME280;68071;45.062;7.356;2024-01-30T04:24:46;96806.81;;;0.78;100.00
49999;BME280;68071;45.062;7.356;2024-01-30T04:27:50;96804.66;;;1.17;100.00
49999;BME280;68071;45.062;7.356;2024-01-30T04:30:54;96803.78;;;0.94;100.00
49999;BME280;68071;45.062;7.356;2024-01-30T04:33:58;96812.56;;;0.90;100.00
49999;BME280;68071;45.062;7.356;2024-01-30T04:37:02;96802.06;;;0.84;100.00
49999;BME280;68071;45.062;7.356;2024-01-30T04:40:06;96808.34;;;0.70;100.00
49999;BME280;68071;45.062;7.356;2024-01-30T04:43:10;96808.94;;;0.53;100.00
49999;BME280;68071;45.062;7.356;2024-01-30T04:46:14;96806.53;;;0.66;100.00
49999;BME280;68071;45.062;7.356;2024-01-30T04:49:18;96809.34;;;0.74;100.00
49999;BME280;68071;45.062;7.356;2024-01-30T04:52:22;96816.50;;;0.70;100.00
49999;BME280;68071;45.062;7.356;2024-01-30T04:55:26;96815.09;;;0.45;100.00
49999;BME280;68071;45.062;7.356;2024-01-30T04:58:30;96815.84;;;-0.16;100.00
49999;BME280;68071;45.062;7.356;2024-01-30T05:01:34;96819.38;;;0.18;100.00
49999;BME280;68071;45.062;7.356;2024-01-30T05:04:38;96818.69;;;0.96;100.00
49999;BME280;68071;45.062;7.356;2024-01-30T05:07:42;96819.16;;;1.26;100.00
49999;BME280;68071;45.062;7.356;2024-01-30T05:10:45;96815.25;;;1.04;100.00
49999;BME280;68071;45.062;7.356;2024-01-30T05:13:50;96817.91;;;0.96;100.00
49999;BME280;68071;45.062;7.356;2024-01-30T05:16:54;96819.63;;;0.64;100.00
49999;BME280;68071;45.062;7.356;2024-01-30T05:19:58;96816.97;;;0.44;100.00
49999;BME280;68071;45.062;7.356;2024-01-30T05:23:02;96815.56;;;0.33;100.00
49999;BME280;68071;45.062;7.356;2024-01-30T05:26:06;96819.31;;;-0.10;100.00
49999;BME280;68071;45.062;7.356;2024-01-30T05:29:10;96814.97;;;0.50;100.00
49999;BME280;68071;45.062;7.356;2024-01-30T05:32:14;96822.13;;;0.74;100.00
49999;BME280;68071;45.062;7.356;2024-01-30T05:35:18;96820.34;;;0.83;100.00
49999;BME280;68071;45.062;7.356;2024-01-30T05:38:24;96823.25;;;0.87;100.00
49999;BME280;68071;45.062;7.356;2024-01-30T05:41:28;96836.75;;;0.92;100.00
49999;BME280;68071;45.062;7.356;2024-01-30T05:44:32;96828.28;;;0.52;100.00
49999;BME280;68071;45.062;7.356;2024-01-30T05:47:37;96828.31;;;0.05;100.00
49999;BME280;68071;45.062;7.356;2024-01-30T05:50:41;96822.94;;;0.47;100.00
49999;BME280;68071;45.062;7.356;2024-01-30T05:53:45;96825.81;;;0.22;100.00
49999;BME280;68071;45.062;7.356;2024-01-30T05:56:49;96826.81;;;0.12;100.00
49999;BME280;68071;45.062;7.356;2024-01-30T05:59:53;96835.16;;;0.16;100.00
49999;BME280;68071;45.062;7.356;2024-01-30T06:02:57;96832.97;;;0.18;100.00
49999;BME280;68071;45.062;7.356;2024-01-30T06:06:01;96826.75;;;0.45;100.00
49999;BME280;68071;45.062;7.356;2024-01-30T06:09:05;96834.28;;;0.35;100.00
49999;BME280;68071;45.062;7.356;2024-01-30T06:12:09;96827.78;;;0.03;100.00
49999;BME280;68071;45.062;7.356;2024-01-30T06:15:15;96830.31;;;-0.20;100.00
49999;BME280;68071;45.062;7.356;2024-01-30T06:18:19;96838.66;;;0.03;100.00
49999;BME280;68071;45.062;7.356;2024-01-30T06:21:24;96840.81;;;-0.13;100.00
49999;BME280;68071;45.062;7.356;2024-01-30T06:24:27;96834.00;;;0.03;100.00
49999;BME280;68071;45.062;7.356;2024-01-30T06:27:31;96836.81;;;0.31;100.00
49999;BME280;68071;45.062;7.356;2024-01-30T06:30:35;96831.97;;;0.28;100.00
49999;BME280;68071;45.062;7.356;2024-01-30T06:33:40;96830.63;;;0.11;100.00
49999;BME280;68071;45.062;7.356;2024-01-30T06:36:45;96828.19;;;0.10;100.00
49999;BME280;68071;45.062;7.356;2024-01-30T06:39:49;96827.66;;;0.41;100.00
49999;BME280;68071;45.062;7.356;2024-01-30T06:42:53;96834.19;;;-0.07;100.00
49999;BME280;68071;45.062;7.356;2024-01-30T06:45:57;96840.53;;;-0.12;100.00
49999;BME280;68071;45.062;7.356;2024-01-30T06:49:01;96843.16;;;0.26;100.00
49999;BME280;68071;45.062;7.356;2024-01-30T06:52:06;96839.06;;;0.43;100.00
49999;BME280;68071;45.062;7.356;2024-01-30T06:55:10;96842.28;;;0.45;100.00
49999;BME280;68071;45.062;7.356;2024-01-30T06:58:14;96833.91;;;0.27;100.00
49999;BME280;68071;45.062;7.356;2024-01-30T07:01:18;96835.41;;;0.34;100.00
49999;BME280;68071;45.062;7.356;2024-01-30T07:04:22;96834.13;;;0.12;100.00
49999;BME280;68071;45.062;7.356;2024-01-30T07:07:26;96833.59;;;0.29;100.00
49999;BME280;68071;45.062;7.356;2024-01-30T07:10:30;96831.56;;;0.35;100.00
49999;BME280;68071;45.062;7.356;2024-01-30T07:13:35;96831.78;;;0.24;100.00
49999;BME280;68071;45.062;7.356;2024-01-30T07:16:39;96842.06;;;0.27;100.00
49999;BME280;68071;45.062;7.356;2024-01-30T07:19:43;96840.78;;;0.53;100.00
49999;BME280;68071;45.062;7.356;2024-01-30T07:22:47;96848.06;;;0.71;100.00
49999;BME280;68071;45.062;7.356;2024-01-30T07:25:52;96848.22;;;1.17;100.00
49999;BME280;68071;45.062;7.356;2024-01-30T07:28:55;96854.22;;;1.42;100.00
49999;BME280;68071;45.062;7.356;2024-01-30T07:31:59;96855.09;;;1.14;100.00
49999;BME280;68071;45.062;7.356;2024-01-30T07:35:03;96850.09;;;1.44;100.00
49999;BME280;68071;45.062;7.356;2024-01-30T07:38:07;96849.38;;;1.53;100.00
49999;BME280;68071;45.062;7.356;2024-01-30T07:41:12;96858.19;;;1.35;100.00
49999;BME280;68071;45.062;7.356;2024-01-30T07:44:15;96855.34;;;1.41;100.00
49999;BME280;68071;45.062;7.356;2024-01-30T07:47:19;96860.28;;;1.53;100.00
49999;BME280;68071;45.062;7.356;2024-01-30T07:50:23;96866.44;;;1.44;100.00
49999;BME280;68071;45.062;7.356;2024-01-30T07:53:27;96872.25;;;1.65;100.00
49999;BME280;68071;45.062;7.356;2024-01-30T07:56:31;96874.75;;;1.39;100.00
49999;BME280;68071;45.062;7.356;2024-01-30T07:59:35;96874.56;;;1.22;100.00
49999;BME280;68071;45.062;7.356;2024-01-30T08:02:39;96885.84;;;1.79;100.00
49999;BME280;68071;45.062;7.356;2024-01-30T08:05:42;96876.69;;;1.98;100.00
49999;BME280;68071;45.062;7.356;2024-01-30T08:08:47;96886.91;;;1.92;100.00
49999;BME280;68071;45.062;7.356;2024-01-30T08:11:51;96888.41;;;2.21;100.00
49999;BME280;68071;45.062;7.356;2024-01-30T08:14:54;96884.44;;;2.05;100.00
49999;BME280;68071;45.062;7.356;2024-01-30T08:17:58;96888.56;;;1.79;100.00
49999;BME280;68071;45.062;7.356;2024-01-30T08:21:02;96883.19;;;1.88;100.00
49999;BME280;68071;45.062;7.356;2024-01-30T08:24:07;96880.41;;;1.79;100.00
49999;BME280;68071;45.062;7.356;2024-01-30T08:27:11;96896.25;;;1.77;100.00
49999;BME280;68071;45.062;7.356;2024-01-30T08:30:15;96887.09;;;1.96;100.00
49999;BME280;68071;45.062;7.356;2024-01-30T08:33:19;96891.06;;;1.90;100.00
49999;BME280;68071;45.062;7.356;2024-01-30T08:36:23;96886.22;;;1.87;100.00
49999;BME280;68071;45.062;7.356;2024-01-30T08:39:27;96884.22;;;2.01;100.00
49999;BME280;68071;45.062;7.356;2024-01-30T08:42:31;96886.78;;;1.98;100.00
49999;BME280;68071;45.062;7.356;2024-01-30T08:45:34;96882.44;;;2.19;100.00
49999;BME280;68071;45.062;7.356;2024-01-30T08:48:39;96883.69;;;2.36;100.00
49999;BME280;68071;45.062;7.356;2024-01-30T08:51:42;96885.72;;;2.53;100.00
49999;BME280;68071;45.062;7.356;2024-01-30T08:54:46;96886.09;;;2.69;100.00
49999;BME280;68071;45.062;7.356;2024-01-30T08:57:50;96886.41;;;2.99;100.00
49999;BME280;68071;45.062;7.356;2024-01-30T09:00:55;96884.25;;;3.27;100.00
49999;BME280;68071;45.062;7.356;2024-01-30T09:03:59;96886.56;;;3.52;100.00
49999;BME280;68071;45.062;7.356;2024-01-30T09:07:03;96893.81;;;3.74;100.00
49999;BME280;68071;45.062;7.356;2024-01-30T09:10:09;96885.81;;;3.95;100.00
49999;BME280;68071;45.062;7.356;2024-01-30T09:13:13;96881.94;;;4.14;100.00
49999;BME280;68071;45.062;7.356;2024-01-30T09:16:17;96889.00;;;4.23;100.00
49999;BME280;68071;45.062;7.356;2024-01-30T09:19:21;96890.91;;;4.32;100.00
49999;BME280;68071;45.062;7.356;2024-01-30T09:22:25;96880.59;;;4.46;100.00
49999;BME280;68071;45.062;7.356;2024-01-30T09:25:29;96884.59;;;4.58;100.00
49999;BME280;68071;45.062;7.356;2024-01-30T09:28:33;96889.09;;;4.62;100.00
49999;BME280;68071;45.062;7.356;2024-01-30T09:31:37;96889.56;;;4.73;100.00
49999;BME280;68071;45.062;7.356;2024-01-30T09:34:41;96888.56;;;4.78;100.00
49999;BME280;68071;45.062;7.356;2024-01-30T09:37:45;96887.28;;;4.75;100.00
49999;BME280;68071;45.062;7.356;2024-01-30T09:40:54;96885.22;;;4.72;100.00
49999;BME280;68071;45.062;7.356;2024-01-30T09:43:59;96885.31;;;4.84;100.00
49999;BME280;68071;45.062;7.356;2024-01-30T09:47:04;96894.97;;;4.91;100.00
49999;BME280;68071;45.062;7.356;2024-01-30T09:50:09;96893.00;;;5.09;100.00
49999;BME280;68071;45.062;7.356;2024-01-30T09:53:14;96894.78;;;5.05;100.00
49999;BME280;68071;45.062;7.356;2024-01-30T09:56:18;96887.59;;;5.21;99.01
49999;BME280;68071;45.062;7.356;2024-01-30T09:59:22;96905.66;;;5.22;99.85
49999;BME280;68071;45.062;7.356;2024-01-30T10:02:26;96896.66;;;5.13;100.00
49999;BME280;68071;45.062;7.356;2024-01-30T10:05:31;96895.97;;;5.25;99.77
49999;BME280;68071;45.062;7.356;2024-01-30T10:08:38;96908.84;;;5.33;99.33
49999;BME280;68071;45.062;7.356;2024-01-30T10:11:42;96899.13;;;5.36;95.46
49999;BME280;68071;45.062;7.356;2024-01-30T10:14:46;96899.56;;;5.47;92.59
49999;BME280;68071;45.062;7.356;2024-01-30T10:17:50;96899.75;;;5.41;92.04
49999;BME280;68071;45.062;7.356;2024-01-30T10:20:54;96902.78;;;5.49;93.72
49999;BME280;68071;45.062;7.356;2024-01-30T10:23:58;96895.03;;;5.51;93.66
49999;BME280;68071;45.062;7.356;2024-01-30T10:27:03;96897.25;;;5.57;92.99
49999;BME280;68071;45.062;7.356;2024-01-30T10:30:07;96910.31;;;5.82;93.39
49999;BME280;68071;45.062;7.356;2024-01-30T10:33:11;96897.34;;;5.91;90.64
49999;BME280;68071;45.062;7.356;2024-01-30T10:36:17;96903.88;;;6.08;91.90
49999;BME280;68071;45.062;7.356;2024-01-30T10:39:22;96888.41;;;6.03;91.27
49999;BME280;68071;45.062;7.356;2024-01-30T10:42:31;96888.88;;;6.05;87.94
49999;BME280;68071;45.062;7.356;2024-01-30T10:45:37;96889.88;;;6.22;87.59
49999;BME280;68071;45.062;7.356;2024-01-30T10:48:43;96886.91;;;6.27;86.31
49999;BME280;68071;45.062;7.356;2024-01-30T10:51:51;96885.06;;;6.18;84.37
49999;BME280;68071;45.062;7.356;2024-01-30T10:54:56;96884.03;;;6.23;84.28
49999;BME280;68071;45.062;7.356;2024-01-30T10:58:00;96879.50;;;6.06;85.83
49999;BME280;68071;45.062;7.356;2024-01-30T11:01:06;96876.34;;;5.95;82.57
49999;BME280;68071;45.062;7.356;2024-01-30T11:04:11;96868.63;;;5.88;82.37
49999;BME280;68071;45.062;7.356;2024-01-30T11:07:23;96866.69;;;5.89;85.51
49999;BME280;68071;45.062;7.356;2024-01-30T11:10:27;96857.41;;;6.02;89.87
49999;BME280;68071;45.062;7.356;2024-01-30T11:13:31;96854.19;;;6.00;90.33
49999;BME280;68071;45.062;7.356;2024-01-30T11:16:35;96855.41;;;6.12;90.00
49999;BME280;68071;45.062;7.356;2024-01-30T11:19:41;96847.56;;;6.23;83.43
49999;BME280;68071;45.062;7.356;2024-01-30T11:22:46;96845.03;;;6.51;75.89
49999;BME280;68071;45.062;7.356;2024-01-30T11:25:52;96854.59;;;6.45;78.27
49999;BME280;68071;45.062;7.356;2024-01-30T11:28:56;96840.31;;;6.51;77.88
49999;BME280;68071;45.062;7.356;2024-01-30T11:32:00;96842.84;;;6.57;80.22
49999;BME280;68071;45.062;7.356;2024-01-30T11:35:05;96829.69;;;6.62;78.62
49999;BME280;68071;45.062;7.356;2024-01-30T11:38:14;96833.78;;;6.56;79.62
49999;BME280;68071;45.062;7.356;2024-01-30T11:41:18;96829.59;;;6.71;80.14
49999;BME280;68071;45.062;7.356;2024-01-30T11:44:22;96823.06;;;6.63;81.59
49999;BME280;68071;45.062;7.356;2024-01-30T11:47:27;96814.81;;;6.63;80.89
49999;BME280;68071;45.062;7.356;2024-01-30T11:50:34;96822.72;;;6.65;82.85
49999;BME280;68071;45.062;7.356;2024-01-30T11:53:38;96820.97;;;6.48;80.68
49999;BME280;68071;45.062;7.356;2024-01-30T11:56:42;96816.25;;;6.36;83.16
49999;BME280;68071;45.062;7.356;2024-01-30T11:59:47;96815.19;;;6.28;87.58
49999;BME280;68071;45.062;7.356;2024-01-30T12:02:52;96813.63;;;6.40;86.55
49999;BME280;68071;45.062;7.356;2024-01-30T12:05:59;96805.63;;;6.47;84.64
49999;BME280;68071;45.062;7.356;2024-01-30T12:09:03;96805.44;;;6.52;86.18
49999;BME280;68071;45.062;7.356;2024-01-30T12:12:08;96801.09;;;6.63;83.16
49999;BME280;68071;45.062;7.356;2024-01-30T12:15:16;96803.94;;;6.55;85.04
49999;BME280;68071;45.062;7.356;2024-01-30T12:18:20;96788.06;;;6.85;83.49
49999;BME280;68071;45.062;7.356;2024-01-30T12:21:24;96794.56;;;7.05;75.16
49999;BME280;68071;45.062;7.356;2024-01-30T12:24:28;96788.25;;;6.92;80.13
49999;BME280;68071;45.062;7.356;2024-01-30T12:27:39;96791.38;;;6.91;83.29
49999;BME280;68071;45.062;7.356;2024-01-30T12:30:45;96791.72;;;6.89;84.43
49999;BME280;68071;45.062;7.356;2024-01-30T12:33:49;96786.88;;;7.11;80.81
49999;BME280;68071;45.062;7.356;2024-01-30T12:36:53;96781.28;;;7.07;85.01
49999;BME280;68071;45.062;7.356;2024-01-30T12:39:57;96786.78;;;6.95;86.04
49999;BME280;68071;45.062;7.356;2024-01-30T12:43:02;96777.97;;;7.02;84.84
49999;BME280;68071;45.062;7.356;2024-01-30T12:46:07;96776.47;;;7.17;85.20
49999;BME280;68071;45.062;7.356;2024-01-30T12:49:11;96774.16;;;7.19;85.90
49999;BME280;68071;45.062;7.356;2024-01-30T12:52:16;96772.84;;;7.53;79.29
49999;BME280;68071;45.062;7.356;2024-01-30T12:55:20;96770.50;;;7.96;75.98
49999;BME280;68071;45.062;7.356;2024-01-30T12:58:24;96769.78;;;7.83;72.55
49999;BME280;68071;45.062;7.356;2024-01-30T13:01:28;96757.84;;;7.51;78.34
49999;BME280;68071;45.062;7.356;2024-01-30T13:04:32;96753.31;;;7.71;76.55
49999;BME280;68071;45.062;7.356;2024-01-30T13:07:36;96752.66;;;7.62;75.68
49999;BME280;68071;45.062;7.356;2024-01-30T13:10:40;96757.34;;;7.90;68.97
49999;BME280;68071;45.062;7.356;2024-01-30T13:13:44;96757.34;;;7.90;72.11
49999;BME280;68071;45.062;7.356;2024-01-30T13:16:48;96749.31;;;7.68;76.24
49999;BME280;68071;45.062;7.356;2024-01-30T13:19:52;96746.72;;;7.47;77.44
49999;BME280;68071;45.062;7.356;2024-01-30T13:22:57;96742.41;;;8.03;70.90
49999;BME280;68071;45.062;7.356;2024-01-30T13:26:01;96745.31;;;7.94;69.51
49999;BME280;68071;45.062;7.356;2024-01-30T13:29:05;96732.66;;;8.22;68.67
49999;BME280;68071;45.062;7.356;2024-01-30T13:32:09;96740.28;;;8.12;68.37
49999;BME280;68071;45.062;7.356;2024-01-30T13:35:13;96732.84;;;8.13;72.71
49999;BME280;68071;45.062;7.356;2024-01-30T13:38:17;96738.44;;;7.88;75.25
49999;BME280;68071;45.062;7.356;2024-01-30T13:41:21;96734.63;;;7.93;72.43
49999;BME280;68071;45.062;7.356;2024-01-30T13:44:26;96724.06;;;7.95;70.97
49999;BME280;68071;45.062;7.356;2024-01-30T13:47:31;96730.59;;;7.74;74.82
49999;BME280;68071;45.062;7.356;2024-01-30T13:50:34;96725.22;;;7.94;73.00
49999;BME280;68071;45.062;7.356;2024-01-30T13:53:39;96734.88;;;7.87;75.54
49999;BME280;68071;45.062;7.356;2024-01-30T13:56:43;96734.09;;;7.87;77.68
49999;BME280;68071;45.062;7.356;2024-01-30T13:59:47;96731.97;;;7.68;78.11
49999;BME280;68071;45.062;7.356;2024-01-30T14:02:51;96727.50;;;8.20;71.79
49999;BME280;68071;45.062;7.356;2024-01-30T14:05:55;96739.91;;;7.98;77.50
49999;BME280;68071;45.062;7.356;2024-01-30T14:09:00;96728.84;;;8.42;72.40
49999;BME280;68071;45.062;7.356;2024-01-30T14:12:04;96732.78;;;8.41;69.92
49999;BME280;68071;45.062;7.356;2024-01-30T14:15:08;96729.97;;;8.09;73.26
49999;BME280;68071;45.062;7.356;2024-01-30T14:18:13;96729.00;;;8.17;71.44
49999;BME280;68071;45.062;7.356;2024-01-30T14:21:17;96727.59;;;8.40;66.89
49999;BME280;68071;45.062;7.356;2024-01-30T14:24:21;96732.50;;;8.30;69.81
49999;BME280;68071;45.062;7.356;2024-01-30T14:27:26;96726.81;;;8.39;70.21
49999;BME280;68071;45.062;7.356;2024-01-30T14:30:30;96729.13;;;8.37;70.35
49999;BME280;68071;45.062;7.356;2024-01-30T14:33:34;96721.47;;;8.30;71.94
49999;BME280;68071;45.062;7.356;2024-01-30T14:36:37;96726.91;;;8.43;71.89
49999;BME280;68071;45.062;7.356;2024-01-30T14:39:42;96731.09;;;8.53;67.28
49999;BME280;68071;45.062;7.356;2024-01-30T14:42:47;96713.13;;;8.43;68.90
49999;BME280;68071;45.062;7.356;2024-01-30T14:45:51;96729.66;;;8.43;69.64
49999;BME280;68071;45.062;7.356;2024-01-30T14:48:56;96723.06;;;8.47;69.13
49999;BME280;68071;45.062;7.356;2024-01-30T14:52:01;96723.28;;;8.55;67.99
49999;BME280;68071;45.062;7.356;2024-01-30T14:55:07;96714.09;;;8.35;70.18
49999;BME280;68071;45.062;7.356;2024-01-30T14:58:12;96723.00;;;8.44;67.82
49999;BME280;68071;45.062;7.356;2024-01-30T15:01:16;96713.97;;;8.15;72.82
49999;BME280;68071;45.062;7.356;2024-01-30T15:04:20;96712.00;;;7.99;75.10
49999;BME280;68071;45.062;7.356;2024-01-30T15:07:24;96719.94;;;8.01;74.88
49999;BME280;68071;45.062;7.356;2024-01-30T15:10:28;96712.53;;;8.05;72.50
49999;BME280;68071;45.062;7.356;2024-01-30T15:13:32;96719.31;;;8.08;72.20
49999;BME280;68071;45.062;7.356;2024-01-30T15:16:36;96719.81;;;7.97;74.31
49999;BME280;68071;45.062;7.356;2024-01-30T15:19:40;96715.88;;;7.82;76.53
49999;BME280;68071;45.062;7.356;2024-01-30T15:22:44;96725.16;;;7.62;77.81
49999;BME280;68071;45.062;7.356;2024-01-30T15:25:48;96727.28;;;7.68;76.15
49999;BME280;68071;45.062;7.356;2024-01-30T15:28:53;96723.94;;;7.75;74.78
49999;BME280;68071;45.062;7.356;2024-01-30T15:31:57;96720.28;;;7.71;74.24
49999;BME280;68071;45.062;7.356;2024-01-30T15:35:01;96714.22;;;7.37;78.32
49999;BME280;68071;45.062;7.356;2024-01-30T15:38:07;96728.25;;;6.94;82.09
49999;BME280;68071;45.062;7.356;2024-01-30T15:41:12;96726.56;;;5.94;99.68
49999;BME280;68071;45.062;7.356;2024-01-30T15:44:16;96733.13;;;5.81;100.00
49999;BME280;68071;45.062;7.356;2024-01-30T15:47:20;96731.34;;;5.64;100.00
49999;BME280;68071;45.062;7.356;2024-01-30T15:50:24;96734.56;;;5.44;100.00
49999;BME280;68071;45.062;7.356;2024-01-30T15:53:28;96734.63;;;5.14;100.00
49999;BME280;68071;45.062;7.356;2024-01-30T15:56:32;96730.19;;;4.80;100.00
49999;BME280;68071;45.062;7.356;2024-01-30T15:59:36;96728.56;;;5.09;100.00
49999;BME280;68071;45.062;7.356;2024-01-30T16:02:41;96735.56;;;5.40;100.00
49999;BME280;68071;45.062;7.356;2024-01-30T16:05:46;96734.22;;;4.74;100.00
49999;BME280;68071;45.062;7.356;2024-01-30T16:08:50;96727.13;;;4.43;100.00
49999;BME280;68071;45.062;7.356;2024-01-30T16:11:55;96723.09;;;4.49;100.00
49999;BME280;68071;45.062;7.356;2024-01-30T16:15:01;96723.78;;;4.37;100.00
49999;BME280;68071;45.062;7.356;2024-01-30T16:18:08;96727.34;;;4.29;100.00
49999;BME280;68071;45.062;7.356;2024-01-30T16:21:18;96738.94;;;4.26;100.00